Aegis — CFN6336 — position and weather

sailwx.info

Track history (hours):
 
Tides and Currents Weather Stations Pressure Air Temp Water Temp Dewpoint Dewpoint Depression Visibility Wind Speed Wind Dir Waves Ship Positions

Aegis

Last reported at 2018-Apr-08 20:35 UTC. Time now 2018-Apr-20 20:29 UTC.
Position N 48°48' W 123°23'.
Warning: this ship's position is 11 days out of date.

Length 12 m.

Type: Pleasure craft. MMSI: 316013873.

Date/timePositionNaut miles runAvg speedWind from/ knotsBaromVisibWave heightAir tempDewpointWater temp
2018-Apr-08 20:35N 48°48' W 123°23'1 6.8
2018-Apr-08 20:30N 48°48' W 123°23'4 6.5
2018-Apr-08 19:57N 48°52' W 123°24'1 0.4
2018-Apr-08 16:25N 48°53' W 123°24'0 0.0
2018-Apr-08 14:25N 48°53' W 123°24'0 0.0
2018-Apr-08 10:07N 48°53' W 123°24'0 0.0
2018-Apr-08 09:55N 48°53' W 123°24'0 0.0
2018-Apr-08 08:19N 48°53' W 123°24'0 0.0
2018-Apr-08 07:49N 48°53' W 123°24'0 0.0
2018-Apr-08 07:19N 48°53' W 123°24'0 0.0
2018-Apr-08 06:49N 48°53' W 123°24'0 0.0
2018-Apr-08 06:19N 48°53' W 123°24'0 0.0
2018-Apr-08 03:04N 48°53' W 123°24'0 0.0
2018-Apr-08 02:49N 48°53' W 123°24'0 0.0
2018-Apr-07 23:16N 48°53' W 123°24'1 0.2
2018-Apr-07 20:13N 48°54' W 123°24'0 0.0
2018-Apr-07 18:07N 48°54' W 123°24'0 0.6
2018-Apr-07 17:46N 48°54' W 123°24'1 5.6
2018-Apr-07 17:30N 48°52' W 123°24'  
2018-Mar-30 18:41N 48°29' W 123°16'1 6.5
2018-Mar-30 18:30N 48°28' W 123°16'3 6.3
2018-Mar-30 18:00N 48°25' W 123°17'4 3.3
2018-Mar-30 16:54N 48°25' W 123°23'0 0.4
2018-Mar-30 16:28N 48°26' W 123°22'0 0.0
2018-Mar-30 15:58N 48°26' W 123°22'0 0.0
2018-Mar-30 15:25N 48°26' W 123°22'0 0.0
2018-Mar-30 14:58N 48°26' W 123°22'0 0.0
2018-Mar-30 14:28N 48°26' W 123°22'0 0.0
2018-Mar-30 13:59N 48°26' W 123°22'0 0.0
2018-Mar-30 13:29N 48°26' W 123°22'0 0.0
2018-Mar-30 12:58N 48°26' W 123°22'0 0.0
2018-Mar-30 12:28N 48°26' W 123°22'0 0.0
2018-Mar-30 11:58N 48°26' W 123°22'0 0.0
2018-Mar-30 11:28N 48°26' W 123°22'0 0.0
2018-Mar-30 10:58N 48°26' W 123°22'0 0.0
2018-Mar-30 10:28N 48°26' W 123°22'0 0.0
2018-Mar-30 09:58N 48°26' W 123°22'0 0.0
2018-Mar-30 09:25N 48°26' W 123°22'0 0.0
2018-Mar-30 08:58N 48°26' W 123°22'0 0.0
2018-Mar-30 08:28N 48°26' W 123°22'0 0.0
2018-Mar-30 07:58N 48°26' W 123°22'0 0.0
2018-Mar-30 07:28N 48°26' W 123°22'0 0.0
2018-Mar-30 06:58N 48°26' W 123°22'0 0.0
2018-Mar-30 06:28N 48°26' W 123°22'0 0.0
2018-Mar-30 05:58N 48°26' W 123°22'0 0.0
2018-Mar-30 05:28N 48°26' W 123°22'0 0.0
2018-Mar-30 04:58N 48°26' W 123°22'0 0.0
2018-Mar-30 04:28N 48°26' W 123°22'0 0.0
2018-Mar-30 03:58N 48°26' W 123°22'0 0.0
2018-Mar-30 03:28N 48°26' W 123°22'0 0.0
2018-Mar-30 02:58N 48°26' W 123°22'0 0.0
2018-Mar-30 02:30N 48°26' W 123°22'0 0.0
2018-Mar-30 02:00N 48°26' W 123°22'0 0.0
2018-Mar-30 01:30N 48°26' W 123°22'0 0.0
2018-Mar-30 01:00N 48°26' W 123°22'0 0.0
2018-Mar-30 00:30N 48°26' W 123°22'0 0.0
2018-Mar-30 00:00N 48°26' W 123°22'0 0.0
2018-Mar-29 23:30N 48°26' W 123°22'0 0.0
2018-Mar-29 23:00N 48°26' W 123°22'0 0.0
2018-Mar-29 22:30N 48°26' W 123°22'0 0.0
2018-Mar-29 22:00N 48°26' W 123°22'0 0.0
2018-Mar-29 21:30N 48°26' W 123°22'0 0.0
2018-Mar-29 21:00N 48°26' W 123°22'  
Track history (hours):
 
Tides and Currents Weather Stations Pressure Air Temp Water Temp Dewpoint Dewpoint Depression Visibility Wind Speed Wind Dir Waves Ship Positions

Aegis

Last reported at 2018-Apr-08 20:35 UTC. Time now 2018-Apr-20 20:29 UTC.
Position N 48°48' W 123°23'.
Warning: this ship's position is 11 days out of date.

Length 12 m.

Type: Pleasure craft. MMSI: 316013873.

Date/timePositionNaut miles runAvg speedWind from/ knotsBaromVisibWave heightAir tempDewpointWater temp
2018-Apr-08 20:35N 48°48' W 123°23'1 6.8
2018-Apr-08 20:30N 48°48' W 123°23'4 6.5
2018-Apr-08 19:57N 48°52' W 123°24'1 0.4
2018-Apr-08 16:25N 48°53' W 123°24'0 0.0
2018-Apr-08 14:25N 48°53' W 123°24'0 0.0
2018-Apr-08 10:07N 48°53' W 123°24'0 0.0
2018-Apr-08 09:55N 48°53' W 123°24'0 0.0
2018-Apr-08 08:19N 48°53' W 123°24'0 0.0
2018-Apr-08 07:49N 48°53' W 123°24'0 0.0
2018-Apr-08 07:19N 48°53' W 123°24'0 0.0
2018-Apr-08 06:49N 48°53' W 123°24'0 0.0
2018-Apr-08 06:19N 48°53' W 123°24'0 0.0
2018-Apr-08 03:04N 48°53' W 123°24'0 0.0
2018-Apr-08 02:49N 48°53' W 123°24'0 0.0
2018-Apr-07 23:16N 48°53' W 123°24'1 0.2
2018-Apr-07 20:13N 48°54' W 123°24'0 0.0
2018-Apr-07 18:07N 48°54' W 123°24'0 0.6
2018-Apr-07 17:46N 48°54' W 123°24'1 5.6
2018-Apr-07 17:30N 48°52' W 123°24'  
2018-Mar-30 18:41N 48°29' W 123°16'1 6.5
2018-Mar-30 18:30N 48°28' W 123°16'3 6.3
2018-Mar-30 18:00N 48°25' W 123°17'4 3.3
2018-Mar-30 16:54N 48°25' W 123°23'0 0.4
2018-Mar-30 16:28N 48°26' W 123°22'0 0.0
2018-Mar-30 15:58N 48°26' W 123°22'0 0.0
2018-Mar-30 15:25N 48°26' W 123°22'0 0.0
2018-Mar-30 14:58N 48°26' W 123°22'0 0.0
2018-Mar-30 14:28N 48°26' W 123°22'0 0.0
2018-Mar-30 13:59N 48°26' W 123°22'0 0.0
2018-Mar-30 13:29N 48°26' W 123°22'0 0.0
2018-Mar-30 12:58N 48°26' W 123°22'0 0.0
2018-Mar-30 12:28N 48°26' W 123°22'0 0.0
2018-Mar-30 11:58N 48°26' W 123°22'0 0.0
2018-Mar-30 11:28N 48°26' W 123°22'0 0.0
2018-Mar-30 10:58N 48°26' W 123°22'0 0.0
2018-Mar-30 10:28N 48°26' W 123°22'0 0.0
2018-Mar-30 09:58N 48°26' W 123°22'0 0.0
2018-Mar-30 09:25N 48°26' W 123°22'0 0.0
2018-Mar-30 08:58N 48°26' W 123°22'0 0.0
2018-Mar-30 08:28N 48°26' W 123°22'0 0.0
2018-Mar-30 07:58N 48°26' W 123°22'0 0.0
2018-Mar-30 07:28N 48°26' W 123°22'0 0.0
2018-Mar-30 06:58N 48°26' W 123°22'0 0.0
2018-Mar-30 06:28N 48°26' W 123°22'0 0.0
2018-Mar-30 05:58N 48°26' W 123°22'0 0.0
2018-Mar-30 05:28N 48°26' W 123°22'0 0.0
2018-Mar-30 04:58N 48°26' W 123°22'0 0.0
2018-Mar-30 04:28N 48°26' W 123°22'0 0.0
2018-Mar-30 03:58N 48°26' W 123°22'0 0.0
2018-Mar-30 03:28N 48°26' W 123°22'0 0.0
2018-Mar-30 02:58N 48°26' W 123°22'0 0.0
2018-Mar-30 02:30N 48°26' W 123°22'0 0.0
2018-Mar-30 02:00N 48°26' W 123°22'0 0.0
2018-Mar-30 01:30N 48°26' W 123°22'0 0.0
2018-Mar-30 01:00N 48°26' W 123°22'0 0.0
2018-Mar-30 00:30N 48°26' W 123°22'0 0.0
2018-Mar-30 00:00N 48°26' W 123°22'0 0.0
2018-Mar-29 23:30N 48°26' W 123°22'0 0.0
2018-Mar-29 23:00N 48°26' W 123°22'0 0.0
2018-Mar-29 22:30N 48°26' W 123°22'0 0.0
2018-Mar-29 22:00N 48°26' W 123°22'0 0.0
2018-Mar-29 21:30N 48°26' W 123°22'0 0.0
2018-Mar-29 21:00N 48°26' W 123°22'  

Dump ship's entire track history